Time;durP1;ratioP1;P1;durP2;ratioP2;P2;SDS_P1;SDS_P2;PMS_P1;PMS_P2;Temp;Humidity;BMP_temperature;BMP_pressure;BME280_temperature;BME280_humidity;BME280_pressure;Samples;Min_cycle;Max_cycle;Signal;HPM_P1;HPM_P2
2023/07/17 00:35:42;;;;;;;12.63;9.95;;;;;;;;;;8891092;23;20045;-90
2023/07/17 00:39:46;;;;;;;12.38;10.27;;;;;;;;;;8344517;28;20144;-91
2023/07/17 00:43:49;;;;;;;18.17;11.10;;;;;;;;;;8319474;28;20057;-93
2023/07/17 00:47:52;;;;;;;14.05;11.00;;;;;;;;;;8326390;28;20057;-93
2023/07/17 00:51:57;;;;;;;12.95;10.40;;;;;;;;;;8324711;28;20057;-87
2023/07/17 00:56:00;;;;;;;12.65;11.15;;;;;;;;;;8327493;28;20076;-95
2023/07/17 02:01:38;;;;;;;13.13;8.60;;;;;;;;;;9058886;23;20050;-89
2023/07/17 02:05:42;;;;;;;12.13;8.60;;;;;;;;;;8259117;28;20078;-86
2023/07/17 05:35:38;;;;;;;10.07;6.78;;;;;;;;;;9958140;23;20041;-93
2023/07/17 05:39:42;;;;;;;11.43;6.63;;;;;;;;;;8349320;28;20061;-92
2023/07/17 05:43:45;;;;;;;10.20;5.50;;;;;;;;;;8355533;28;20443;-87
2023/07/17 05:47:49;;;;;;;10.15;5.78;;;;;;;;;;8341117;28;20053;-87
2023/07/17 05:51:57;;;;;;;10.18;4.20;;;;;;;;;;8341097;28;20072;-86
2023/07/17 06:26:04;;;;;;;5.97;3.85;;;;;;;;;;8580752;23;20501;-88
2023/07/17 06:30:10;;;;;;;8.93;4.40;;;;;;;;;;8334057;28;20483;-85
2023/07/17 06:34:18;;;;;;;11.20;4.60;;;;;;;;;;8329122;28;20390;-87
2023/07/17 06:43:20;;;;;;;10.38;5.68;;;;;;;;;;8332774;28;20544;-89
2023/07/17 06:47:28;;;;;;;9.50;5.78;;;;;;;;;;8332494;28;20471;-85
2023/07/17 06:51:32;;;;;;;10.40;6.28;;;;;;;;;;8332951;28;20072;-90
2023/07/17 06:55:35;;;;;;;6.72;6.03;;;;;;;;;;8324857;28;20406;-85
2023/07/17 06:59:40;;;;;;;13.98;7.30;;;;;;;;;;8331315;28;20061;-86
2023/07/17 07:03:47;;;;;;;12.63;6.38;;;;;;;;;;8332514;28;20069;-93
2023/07/17 07:08:34;;;;;;;;;;;;;;;;;;;;;
2023/07/17 07:12:57;;;;;;;8.82;7.28;;;;;;;;;;8199498;29;20059;-93
2023/07/17 07:17:05;;;;;;;9.93;7.72;;;;;;;;;;8290992;28;20053;-88
2023/07/17 07:21:13;;;;;;;10.50;6.88;;;;;;;;;;8314520;28;20144;-91
2023/07/17 07:25:17;;;;;;;23.00;20.52;;;;;;;;;;8314041;28;20156;-86
2023/07/17 07:29:20;;;;;;;10.07;7.95;;;;;;;;;;8314455;28;20480;-86
2023/07/17 07:33:29;;;;;;;14.45;8.93;;;;;;;;;;8316563;28;20531;-86
2023/07/17 07:37:42;;;;;;;32.28;25.02;;;;;;;;;;8310925;28;20053;-91
2023/07/17 07:41:46;;;;;;;20.25;15.57;;;;;;;;;;8352270;23;20367;-87
2023/07/17 07:45:50;;;;;;;14.13;10.80;;;;;;;;;;8304316;28;20054;-88
2023/07/17 07:49:58;;;;;;;12.77;8.95;;;;;;;;;;8298706;28;20057;-88
2023/07/17 07:54:06;;;;;;;11.13;9.05;;;;;;;;;;8300086;28;20073;-87
2023/07/17 07:58:12;;;;;;;12.93;9.05;;;;;;;;;;8313979;28;20054;-86
2023/07/17 08:06:28;;;;;;;143.73;62.67;;;;;;;;;;8706768;23;20072;-88
2023/07/17 08:10:34;;;;;;;12.45;7.68;;;;;;;;;;8292145;28;20526;-89
2023/07/17 08:14:47;;;;;;;8.75;6.88;;;;;;;;;;8276498;28;20065;-89
2023/07/17 08:19:06;;;;;;;10.07;7.20;;;;;;;;;;8283808;28;20053;-85
2023/07/17 08:23:26;;;;;;;9.60;6.55;;;;;;;;;;8293736;28;20564;-86
2023/07/17 08:27:31;;;;;;;10.20;8.35;;;;;;;;;;8272207;28;20541;-86
2023/07/17 08:31:35;;;;;;;12.20;6.60;;;;;;;;;;8296227;28;20130;-86
2023/07/17 08:35:39;;;;;;;9.48;5.13;;;;;;;;;;8282839;28;20448;-89
2023/07/17 08:39:44;;;;;;;17.70;10.25;;;;;;;;;;8294502;28;20068;-88
2023/07/17 08:43:53;;;;;;;20.80;19.10;;;;;;;;;;8291074;28;20046;-88
2023/07/17 08:48:18;;;;;;;11.00;8.77;;;;;;;;;;8292011;28;20058;-87
2023/07/17 08:53:41;;;;;;;7.07;4.45;;;;;;;;;;8294794;28;20083;-88
2023/07/17 08:57:58;;;;;;;5.60;4.45;;;;;;;;;;8281706;28;20049;-86
2023/07/17 09:02:10;;;;;;;47.17;42.72;;;;;;;;;;8271576;28;20070;-86
2023/07/17 09:06:16;;;;;;;6.97;4.18;;;;;;;;;;8289832;28;20372;-90
2023/07/17 09:10:23;;;;;;;10.93;7.75;;;;;;;;;;8295236;28;20053;-91
2023/07/17 09:14:31;;;;;;;6.40;5.25;;;;;;;;;;8286955;28;20441;-86
2023/07/17 09:18:42;;;;;;;6.68;5.80;;;;;;;;;;8294952;28;20054;-86
2023/07/17 09:23:00;;;;;;;8.27;4.07;;;;;;;;;;8293508;28;20509;-87
2023/07/17 09:35:39;;;;;;;8.87;6.30;;;;;;;;;;9304184;23;20133;-88
2023/07/17 09:40:09;;;;;;;9.85;5.82;;;;;;;;;;8255119;28;20149;-95
2023/07/17 09:44:18;;;;;;;11.52;7.78;;;;;;;;;;8255141;28;20065;-89
2023/07/17 09:48:23;;;;;;;30.33;22.52;;;;;;;;;;8248980;28;20058;-89
2023/07/17 09:52:32;;;;;;;14.70;8.80;;;;;;;;;;8255820;28;20049;-90
2023/07/17 09:56:39;;;;;;;;;;;;;;;;;;8248955;28;20050;-86
2023/07/17 10:00:46;;;;;;;28.20;13.98;;;;;;;;;;8252760;28;20389;-90
2023/07/17 10:04:54;;;;;;;38.88;19.55;;;;;;;;;;8259553;28;20046;-86
2023/07/17 10:09:00;;;;;;;17.67;10.52;;;;;;;;;;8257915;28;20058;-85
2023/07/17 10:13:03;;;;;;;13.68;8.68;;;;;;;;;;8242990;28;20051;-94
2023/07/17 10:17:27;;;;;;;14.15;7.70;;;;;;;;;;8264675;28;20181;-90
2023/07/17 10:21:32;;;;;;;13.52;8.00;;;;;;;;;;8249475;28;20141;-90
2023/07/17 10:30:38;;;;;;;8.35;4.68;;;;;;;;;;8243198;28;20100;-94
2023/07/17 10:34:51;;;;;;;8.07;4.55;;;;;;;;;;8251289;28;20217;-86
2023/07/17 11:25:11;;;;;;;7.05;5.15;;;;;;;;;;9200634;23;20054;-94
2023/07/17 11:34:23;;;;;;;7.25;5.07;;;;;;;;;;8243206;28;20130;-93
2023/07/17 11:38:44;;;;;;;6.80;5.22;;;;;;;;;;8262473;28;20058;-90
2023/07/17 11:42:56;;;;;;;7.32;5.03;;;;;;;;;;8259466;28;20051;-90
2023/07/17 11:47:10;;;;;;;8.30;5.07;;;;;;;;;;8264516;28;20140;-90
2023/07/17 11:51:20;;;;;;;8.50;5.07;;;;;;;;;;8253548;28;20061;-87
2023/07/17 11:55:34;;;;;;;9.27;5.50;;;;;;;;;;8262646;28;20081;-91
2023/07/17 11:59:46;;;;;;;9.93;5.65;;;;;;;;;;8267889;28;20050;-93
2023/07/17 12:03:54;;;;;;;6.63;5.15;;;;;;;;;;8280534;28;20062;-92
2023/07/17 12:07:57;;;;;;;7.85;5.85;;;;;;;;;;8268033;28;20050;-96
2023/07/17 12:12:12;;;;;;;7.38;6.00;;;;;;;;;;8264814;28;20050;-90
2023/07/17 12:16:21;;;;;;;9.93;5.90;;;;;;;;;;8264628;28;20055;-89
2023/07/17 12:29:07;;;;;;;9.52;6.75;;;;;;;;;;8291012;28;20054;-88
2023/07/17 12:33:16;;;;;;;15.15;7.35;;;;;;;;;;8285802;28;20046;-86
2023/07/17 12:37:28;;;;;;;8.98;7.07;;;;;;;;;;8289044;28;20158;-85
2023/07/17 12:41:37;;;;;;;11.20;6.95;;;;;;;;;;8294274;28;20060;-86
2023/07/17 12:45:43;;;;;;;9.88;7.03;;;;;;;;;;8287860;28;20053;-88
2023/07/17 12:49:51;;;;;;;10.88;6.85;;;;;;;;;;8304617;28;20049;-90
2023/07/17 12:53:57;;;;;;;10.88;7.10;;;;;;;;;;8299849;28;20057;-92
2023/07/17 12:58:03;;;;;;;8.45;6.97;;;;;;;;;;8297386;28;20061;-94
2023/07/17 13:02:14;;;;;;;10.70;7.53;;;;;;;;;;8307140;28;20508;-85
2023/07/17 13:14:51;;;;;;;;;;;;;;;;;;8193392;28;20101;-91
2023/07/17 13:23:18;;;;;;;12.02;7.55;;;;;;;;;;8058535;29;20530;-94
2023/07/17 13:27:26;;;;;;;8.02;7.18;;;;;;;;;;8101147;29;20080;-87
2023/07/17 13:31:36;;;;;;;10.90;8.23;;;;;;;;;;8074602;29;20068;-90
2023/07/17 13:35:49;;;;;;;9.02;7.80;;;;;;;;;;8092234;29;20394;-88
2023/07/17 13:39:59;;;;;;;10.80;8.07;;;;;;;;;;8091754;29;20095;-91
2023/07/17 13:44:03;;;;;;;9.07;7.57;;;;;;;;;;8089798;29;20528;-89
2023/07/17 13:48:09;;;;;;;10.07;7.30;;;;;;;;;;8077907;29;20067;-94
2023/07/17 13:52:12;;;;;;;9.48;7.50;;;;;;;;;;8105225;29;20136;-88
2023/07/17 13:56:16;;;;;;;9.68;7.78;;;;;;;;;;8109839;29;20099;-89
2023/07/17 14:00:23;;;;;;;13.48;7.93;;;;;;;;;;8184641;28;20055;-90
2023/07/17 14:04:32;;;;;;;11.75;7.80;;;;;;;;;;8245982;28;20055;-89
2023/07/17 14:08:36;;;;;;;8.98;7.63;;;;;;;;;;8254599;28;20082;-86
2023/07/17 14:12:43;;;;;;;9.15;7.80;;;;;;;;;;8272972;28;20076;-93
2023/07/17 14:16:46;;;;;;;9.20;7.68;;;;;;;;;;8262168;28;20047;-95
2023/07/17 14:20:51;;;;;;;9.80;7.70;;;;;;;;;;8224277;28;20050;-94
2023/07/17 14:24:55;;;;;;;11.32;8.02;;;;;;;;;;8239823;28;20058;-92
2023/07/17 14:28:59;;;;;;;15.23;8.48;;;;;;;;;;8238879;28;20145;-94
2023/07/17 14:33:02;;;;;;;11.32;8.23;;;;;;;;;;8212134;28;20614;-91
2023/07/17 14:37:07;;;;;;;13.05;8.30;;;;;;;;;;8228649;28;20059;-90
2023/07/17 14:41:11;;;;;;;9.82;7.82;;;;;;;;;;8217624;28;20157;-91
2023/07/17 14:45:14;;;;;;;12.23;8.60;;;;;;;;;;8235712;28;20062;-89
2023/07/17 14:49:17;;;;;;;11.60;9.00;;;;;;;;;;8235202;28;20063;-89
2023/07/17 14:53:23;;;;;;;11.88;8.73;;;;;;;;;;8235825;28;20486;-89
2023/07/17 14:57:26;;;;;;;11.63;8.95;;;;;;;;;;8235671;28;20410;-88
2023/07/17 15:01:29;;;;;;;10.75;9.15;;;;;;;;;;8235086;28;20050;-89
2023/07/17 15:05:32;;;;;;;13.68;9.20;;;;;;;;;;8234870;28;20108;-89
2023/07/17 15:09:37;;;;;;;16.23;8.48;;;;;;;;;;8234474;28;20063;-89
2023/07/17 15:13:40;;;;;;;11.88;8.68;;;;;;;;;;8234613;28;20058;-89
2023/07/17 15:17:42;;;;;;;9.88;8.45;;;;;;;;;;8233483;28;20050;-89
2023/07/17 15:21:46;;;;;;;12.13;9.02;;;;;;;;;;8234925;28;20084;-86
2023/07/17 15:25:50;;;;;;;12.40;8.68;;;;;;;;;;8234795;28;20537;-88
2023/07/17 15:29:53;;;;;;;12.90;8.75;;;;;;;;;;8234479;28;20615;-89
2023/07/17 15:33:58;;;;;;;10.75;8.60;;;;;;;;;;8234202;28;20506;-89
2023/07/17 15:38:01;;;;;;;12.23;9.20;;;;;;;;;;8233838;28;20062;-89
2023/07/17 15:42:07;;;;;;;12.05;8.63;;;;;;;;;;8233627;28;20062;-89
2023/07/17 15:46:10;;;;;;;11.20;8.57;;;;;;;;;;8230355;28;20059;-89
2023/07/17 15:50:12;;;;;;;11.63;9.43;;;;;;;;;;8215300;28;20177;-89
2023/07/17 15:54:15;;;;;;;14.45;9.35;;;;;;;;;;8233532;28;20051;-89
2023/07/17 15:58:20;;;;;;;11.15;8.82;;;;;;;;;;8233421;28;20050;-89
2023/07/17 16:02:23;;;;;;;12.82;9.60;;;;;;;;;;8233373;28;20197;-90
2023/07/17 16:06:26;;;;;;;15.93;9.85;;;;;;;;;;8233005;28;20061;-88
2023/07/17 16:10:29;;;;;;;10.23;8.68;;;;;;;;;;8234594;28;20059;-89
2023/07/17 16:14:34;;;;;;;13.18;9.25;;;;;;;;;;8233830;28;20082;-90
2023/07/17 16:18:37;;;;;;;11.65;8.32;;;;;;;;;;8217167;28;20110;-88
2023/07/17 16:22:40;;;;;;;12.95;8.43;;;;;;;;;;8231445;28;20062;-89
2023/07/17 16:26:45;;;;;;;16.65;8.90;;;;;;;;;;8211535;28;20055;-91
2023/07/17 16:30:52;;;;;;;15.32;8.50;;;;;;;;;;8227928;28;20043;-87
2023/07/17 16:34:55;;;;;;;10.95;7.70;;;;;;;;;;8227744;28;20165;-91
2023/07/17 16:38:58;;;;;;;10.07;7.30;;;;;;;;;;8227723;28;20626;-88
2023/07/17 16:43:01;;;;;;;11.15;7.35;;;;;;;;;;8212435;28;20085;-89
2023/07/17 16:47:08;;;;;;;11.00;7.43;;;;;;;;;;8221250;28;20062;-88
2023/07/17 16:51:12;;;;;;;10.55;7.20;;;;;;;;;;8222897;28;20661;-91
2023/07/17 16:55:16;;;;;;;10.02;6.63;;;;;;;;;;8224820;28;20065;-89
2023/07/17 16:59:19;;;;;;;10.75;7.15;;;;;;;;;;8226561;28;20059;-89
2023/07/17 17:03:26;;;;;;;9.25;6.10;;;;;;;;;;8214756;28;20051;-89
2023/07/17 17:07:31;;;;;;;10.52;7.05;;;;;;;;;;8223544;28;20158;-90
2023/07/17 17:11:36;;;;;;;9.75;6.95;;;;;;;;;;8236896;28;20051;-89
2023/07/17 17:15:40;;;;;;;11.18;7.60;;;;;;;;;;8234585;28;20608;-90
2023/07/17 17:19:47;;;;;;;8.27;6.80;;;;;;;;;;8212248;28;20050;-90
2023/07/17 17:23:51;;;;;;;11.57;7.53;;;;;;;;;;8204400;28;20066;-90
2023/07/17 17:27:55;;;;;;;10.57;7.55;;;;;;;;;;8219352;28;20212;-90
2023/07/17 17:31:58;;;;;;;8.98;7.53;;;;;;;;;;8216747;28;20079;-90
2023/07/17 17:36:04;;;;;;;12.07;8.10;;;;;;;;;;8214027;28;20133;-90
2023/07/17 17:40:10;;;;;;;10.48;7.65;;;;;;;;;;8221457;28;20055;-91
2023/07/17 17:44:14;;;;;;;12.27;7.88;;;;;;;;;;8209656;28;20154;-90
2023/07/17 17:48:20;;;;;;;9.65;7.63;;;;;;;;;;8227207;28;20055;-90
2023/07/17 17:52:27;;;;;;;9.52;7.55;;;;;;;;;;8230774;28;20051;-90
2023/07/17 17:56:31;;;;;;;11.05;7.00;;;;;;;;;;8228273;28;20067;-90
2023/07/17 18:00:36;;;;;;;12.55;7.78;;;;;;;;;;8228506;28;20150;-90
2023/07/17 18:04:41;;;;;;;10.20;6.80;;;;;;;;;;8223962;28;20109;-90
2023/07/17 18:08:46;;;;;;;10.05;7.70;;;;;;;;;;8220410;28;20521;-89
2023/07/17 18:12:51;;;;;;;9.77;7.70;;;;;;;;;;8222386;28;20061;-90
2023/07/17 18:16:55;;;;;;;10.15;7.03;;;;;;;;;;8226758;28;20055;-90
2023/07/17 18:20:59;;;;;;;9.40;7.95;;;;;;;;;;8202880;28;20063;-90
2023/07/17 18:25:05;;;;;;;10.15;8.30;;;;;;;;;;8209349;28;20129;-91
2023/07/17 18:29:09;;;;;;;11.95;8.88;;;;;;;;;;8220718;28;20143;-89
2023/07/17 18:33:13;;;;;;;10.57;9.00;;;;;;;;;;8220531;28;20085;-90
2023/07/17 18:37:16;;;;;;;11.98;8.63;;;;;;;;;;8213555;28;20142;-89
2023/07/17 18:41:22;;;;;;;13.25;10.27;;;;;;;;;;8222532;28;20054;-89
2023/07/17 18:45:31;;;;;;;12.95;10.20;;;;;;;;;;8233250;28;20059;-90
2023/07/17 18:49:37;;;;;;;15.38;11.73;;;;;;;;;;8217202;28;20059;-89
2023/07/17 18:53:42;;;;;;;16.83;11.95;;;;;;;;;;8201923;28;20051;-91
2023/07/17 18:57:51;;;;;;;15.65;12.00;;;;;;;;;;8221606;28;20410;-90
2023/07/17 19:01:56;;;;;;;18.05;13.40;;;;;;;;;;8225255;28;20525;-90
2023/07/17 19:06:01;;;;;;;19.02;13.20;;;;;;;;;;8227134;28;20093;-89
2023/07/17 19:10:07;;;;;;;19.30;14.10;;;;;;;;;;8227329;28;20062;-89
2023/07/17 19:14:14;;;;;;;19.38;14.52;;;;;;;;;;8199655;28;20146;-89
2023/07/17 19:18:18;;;;;;;24.25;17.25;;;;;;;;;;8210116;28;20054;-89
2023/07/17 19:22:25;;;;;;;22.25;16.38;;;;;;;;;;8222052;28;20490;-88
2023/07/17 19:26:29;;;;;;;27.60;18.40;;;;;;;;;;8226033;28;20050;-87
2023/07/17 19:30:35;;;;;;;28.15;19.45;;;;;;;;;;8202932;28;20758;-88
2023/07/17 19:34:41;;;;;;;29.45;20.77;;;;;;;;;;8189788;28;20069;-88
2023/07/17 19:38:48;;;;;;;31.75;20.38;;;;;;;;;;8222792;28;20093;-88
2023/07/17 19:42:52;;;;;;;29.95;19.98;;;;;;;;;;8222685;28;20074;-88
2023/07/17 19:46:59;;;;;;;34.88;21.42;;;;;;;;;;8208918;28;20051;-88
2023/07/17 19:51:05;;;;;;;43.35;23.25;;;;;;;;;;8196904;28;20058;-88
2023/07/17 19:55:12;;;;;;;45.25;24.85;;;;;;;;;;8218083;28;20062;-88
2023/07/17 19:59:16;;;;;;;44.42;24.70;;;;;;;;;;8217451;28;20095;-88
2023/07/17 20:03:23;;;;;;;64.13;27.95;;;;;;;;;;8222779;28;20063;-87
2023/07/17 20:07:29;;;;;;;55.67;28.75;;;;;;;;;;8232019;28;20074;-87
2023/07/17 20:11:38;;;;;;;56.03;28.40;;;;;;;;;;8227439;28;20050;-88
2023/07/17 20:15:47;;;;;;;56.53;29.33;;;;;;;;;;8220957;28;20050;-87
2023/07/17 20:19:59;;;;;;;61.72;31.20;;;;;;;;;;8229677;28;20701;-87
2023/07/17 20:24:07;;;;;;;65.07;30.15;;;;;;;;;;8232711;28;20552;-87
2023/07/17 20:28:13;;;;;;;65.75;30.00;;;;;;;;;;8230781;28;20051;-87
2023/07/17 20:32:17;;;;;;;58.72;29.20;;;;;;;;;;8231393;28;20050;-87
2023/07/17 20:36:24;;;;;;;60.65;29.05;;;;;;;;;;8221606;28;20117;-87
2023/07/17 20:40:32;;;;;;;56.83;28.27;;;;;;;;;;8232359;28;20430;-87
2023/07/17 20:44:38;;;;;;;56.30;28.77;;;;;;;;;;8231236;28;20046;-88
2023/07/17 20:48:42;;;;;;;51.05;25.63;;;;;;;;;;8215428;28;20057;-87
2023/07/17 20:52:48;;;;;;;56.15;26.42;;;;;;;;;;8213388;28;20134;-88
2023/07/17 20:56:52;;;;;;;46.55;25.05;;;;;;;;;;8229158;28;20517;-88
2023/07/17 21:01:01;;;;;;;49.33;25.35;;;;;;;;;;8231354;28;20419;-88
2023/07/17 21:05:05;;;;;;;40.83;23.08;;;;;;;;;;8230041;28;20113;-88
2023/07/17 21:09:10;;;;;;;34.22;21.33;;;;;;;;;;8231128;28;20082;-88
2023/07/17 21:13:13;;;;;;;32.55;20.65;;;;;;;;;;8231619;28;20146;-88
2023/07/17 21:17:16;;;;;;;35.92;21.52;;;;;;;;;;8233923;28;20137;-89
2023/07/17 21:21:19;;;;;;;44.30;23.60;;;;;;;;;;8226510;28;20138;-88
2023/07/17 21:25:24;;;;;;;40.20;21.70;;;;;;;;;;8237412;28;20066;-88
2023/07/17 21:29:27;;;;;;;40.70;21.73;;;;;;;;;;8237276;28;20055;-88
2023/07/17 21:33:30;;;;;;;44.70;21.95;;;;;;;;;;8237145;28;20494;-88
2023/07/17 21:37:33;;;;;;;49.40;24.45;;;;;;;;;;8237095;28;20062;-89
2023/07/17 21:41:42;;;;;;;40.30;21.45;;;;;;;;;;8236735;28;20062;-89
2023/07/17 21:45:48;;;;;;;39.90;21.75;;;;;;;;;;8217229;28;20494;-88
2023/07/17 21:49:50;;;;;;;36.35;19.80;;;;;;;;;;8227205;28;20085;-88
2023/07/17 21:53:53;;;;;;;37.78;20.40;;;;;;;;;;8228150;28;20082;-88
2023/07/17 21:57:58;;;;;;;32.78;19.15;;;;;;;;;;8230387;28;20058;-87
2023/07/17 22:02:01;;;;;;;34.78;20.15;;;;;;;;;;8236835;28;20058;-87
2023/07/17 22:06:04;;;;;;;33.88;19.67;;;;;;;;;;8236761;28;20125;-87
2023/07/17 22:10:08;;;;;;;30.00;18.60;;;;;;;;;;8230510;28;20050;-87
2023/07/17 22:14:12;;;;;;;30.25;18.73;;;;;;;;;;8235689;28;20059;-87
2023/07/17 22:18:15;;;;;;;30.08;18.48;;;;;;;;;;8235667;28;20134;-87
2023/07/17 22:22:18;;;;;;;33.33;18.90;;;;;;;;;;8235380;28;20626;-88
2023/07/17 22:26:21;;;;;;;35.53;18.90;;;;;;;;;;8234059;28;20576;-87
2023/07/17 22:30:26;;;;;;;43.88;21.08;;;;;;;;;;8235249;28;20532;-87
2023/07/17 22:34:29;;;;;;;37.97;20.73;;;;;;;;;;8235658;28;20139;-87
